Time;durP1;ratioP1;P1;durP2;ratioP2;P2;SDS_P1;SDS_P2;PMS_P1;PMS_P2;Temp;Humidity;BMP_temperature;BMP_pressure;BME280_temperature;BME280_humidity;BME280_pressure;Samples;Min_cycle;Max_cycle;Signal;HPM_P1;HPM_P2
2021/09/20 00:00:17;;;;;;;2.90;2.60;;;;;;;10.92;100.00;101126.44;2615077;36;20437;-48
2021/09/20 00:02:45;;;;;;;3.05;2.20;;;;;;;10.90;100.00;101120.38;2614530;31;20038;-47
2021/09/20 00:05:12;;;;;;;3.55;2.70;;;;;;;10.88;100.00;101122.03;2614782;31;20680;-49
2021/09/20 00:07:40;;;;;;;7.43;2.50;;;;;;;10.85;100.00;101118.50;2614440;36;20041;-47
2021/09/20 00:10:09;;;;;;;3.15;2.47;;;;;;;10.84;100.00;101119.31;2614333;36;20065;-47
2021/09/20 00:12:36;;;;;;;4.45;2.70;;;;;;;10.86;100.00;101126.25;2614698;36;20037;-46
2021/09/20 00:15:05;;;;;;;3.88;2.47;;;;;;;10.85;100.00;101119.34;2615705;31;20466;-49
2021/09/20 00:17:33;;;;;;;4.53;2.53;;;;;;;10.83;100.00;101121.03;2614312;36;20042;-49
2021/09/20 00:20:01;;;;;;;3.90;2.65;;;;;;;10.77;100.00;101123.41;2614467;36;20566;-44
2021/09/20 00:22:28;;;;;;;2.58;2.30;;;;;;;10.79;100.00;101120.88;2614125;36;20538;-47
2021/09/20 00:24:55;;;;;;;5.28;2.63;;;;;;;10.79;100.00;101120.88;2614933;31;20030;-49
2021/09/20 00:27:22;;;;;;;5.28;2.22;;;;;;;10.78;100.00;101121.69;2613925;36;20042;-46
2021/09/20 00:29:49;;;;;;;3.70;2.55;;;;;;;10.74;100.00;101123.28;2614723;31;20039;-46
2021/09/20 00:32:16;;;;;;;3.90;2.60;;;;;;;10.74;100.00;101117.28;2614123;31;20053;-45
2021/09/20 00:34:43;;;;;;;4.72;2.83;;;;;;;10.74;100.00;101122.41;2614758;31;20652;-45
2021/09/20 00:37:11;;;;;;;4.07;2.33;;;;;;;10.74;100.00;101125.84;2614919;31;20027;-44
2021/09/20 00:39:38;;;;;;;5.10;2.35;;;;;;;10.75;100.00;101121.59;2614074;36;20046;-48
2021/09/20 00:42:06;;;;;;;3.45;2.60;;;;;;;10.73;100.00;101123.25;2614192;36;20041;-46
2021/09/20 00:44:34;;;;;;;3.10;2.40;;;;;;;10.72;100.00;101124.91;2615405;31;20034;-46
2021/09/20 00:47:01;;;;;;;4.20;2.22;;;;;;;10.75;100.00;101129.28;2613760;36;20026;-44
2021/09/20 00:49:28;;;;;;;6.85;2.80;;;;;;;10.74;100.00;101125.84;2614777;31;20485;-46
2021/09/20 00:51:55;;;;;;;7.68;2.88;;;;;;;10.73;100.00;101126.69;2614053;36;20035;-46
2021/09/20 00:54:23;;;;;;;7.10;3.05;;;;;;;10.73;100.00;101123.25;2613979;36;20073;-44
2021/09/20 00:56:50;;;;;;;4.97;2.60;;;;;;;10.73;100.00;101120.69;2614205;31;20035;-48
2021/09/20 00:59:18;;;;;;;7.13;3.20;;;;;;;10.75;100.00;101127.59;2615252;31;20038;-43
2021/09/20 01:01:45;;;;;;;3.42;2.38;;;;;;;10.73;100.00;101119.00;2614189;31;20038;-44
2021/09/20 01:04:12;;;;;;;4.03;2.67;;;;;;;10.74;100.00;101127.53;2613875;36;20030;-44
2021/09/20 01:06:40;;;;;;;4.65;2.53;;;;;;;10.71;100.00;101129.16;2614622;31;20041;-46
2021/09/20 01:09:07;;;;;;;6.60;2.67;;;;;;;10.71;100.00;101123.19;2614285;36;20836;-51
2021/09/20 01:11:34;;;;;;;5.20;2.70;;;;;;;10.68;100.00;101131.66;2614153;36;20035;-45
2021/09/20 01:14:01;;;;;;;3.95;2.35;;;;;;;10.68;100.00;101128.22;2615293;31;20035;-44
2021/09/20 01:16:29;;;;;;;2.88;2.35;;;;;;;10.67;100.00;101126.47;2614424;31;20035;-46
2021/09/20 01:18:56;;;;;;;5.60;2.80;;;;;;;10.66;100.00;101122.16;2614524;31;20046;-44
2021/09/20 01:21:23;;;;;;;3.10;2.67;;;;;;;10.67;100.00;101129.03;2614797;31;20504;-44
2021/09/20 01:23:50;;;;;;;3.13;2.35;;;;;;;10.64;100.00;101129.81;2614767;36;20540;-46
2021/09/20 01:26:17;;;;;;;5.10;2.55;;;;;;;10.63;100.00;101133.19;2615570;31;20035;-46
2021/09/20 01:28:44;;;;;;;4.97;2.45;;;;;;;10.64;100.00;101136.63;2614322;36;20038;-44
2021/09/20 01:31:12;;;;;;;5.10;2.53;;;;;;;10.62;100.00;101139.13;2613906;36;20574;-44
2021/09/20 01:33:39;;;;;;;3.28;2.80;;;;;;;10.60;100.00;101140.78;2614512;36;20061;-49
2021/09/20 01:36:06;;;;;;;6.55;2.90;;;;;;;10.59;100.00;101136.47;2615435;31;20034;-46
2021/09/20 01:38:33;;;;;;;3.33;2.95;;;;;;;10.60;100.00;101130.53;2614689;36;20030;-46
2021/09/20 01:41:00;;;;;;;2.92;2.50;;;;;;;10.59;100.00;101130.50;2615343;31;20038;-44
2021/09/20 01:43:28;;;;;;;4.40;2.67;;;;;;;10.58;100.00;101137.28;2615152;31;20035;-45
2021/09/20 01:45:55;;;;;;;5.85;2.80;;;;;;;10.58;100.00;101137.28;2614667;36;20027;-45
2021/09/20 01:48:22;;;;;;;3.30;2.45;;;;;;;10.56;100.00;101140.63;2614909;36;20124;-47
2021/09/20 01:50:49;;;;;;;4.57;2.53;;;;;;;10.56;100.00;101135.50;2614994;36;20035;-46
2021/09/20 01:53:17;;;;;;;5.93;2.78;;;;;;;10.55;100.00;101134.63;2614731;31;20029;-46
2021/09/20 01:55:44;;;;;;;3.45;2.70;;;;;;;10.56;100.00;101136.38;2617077;31;20142;-45
2021/09/20 01:58:11;;;;;;;3.78;2.55;;;;;;;10.54;100.00;101132.91;2614476;36;20050;-45
2021/09/20 02:00:43;;;;;;;4.90;2.90;;;;;;;10.54;100.00;101132.91;2614490;36;20034;-48
2021/09/20 02:03:12;;;;;;;4.20;2.45;;;;;;;10.54;100.00;101129.44;2615384;31;20434;-47
2021/09/20 02:05:40;;;;;;;6.22;2.88;;;;;;;10.54;100.00;101132.91;2615001;36;20049;-44
2021/09/20 02:08:07;;;;;;;4.15;2.60;;;;;;;10.54;100.00;101132.00;2614658;31;20171;-44
2021/09/20 02:10:34;;;;;;;4.60;2.85;;;;;;;10.53;100.00;101122.59;2615421;31;20035;-45
2021/09/20 02:13:02;;;;;;;4.05;2.60;;;;;;;10.51;100.00;101122.53;2615092;36;20173;-44
2021/09/20 02:15:29;;;;;;;3.85;2.85;;;;;;;10.50;100.00;101127.63;2615737;31;20042;-44
2021/09/20 02:17:56;;;;;;;4.55;2.83;;;;;;;10.50;100.00;101127.63;2614748;36;20038;-46
2021/09/20 02:20:23;;;;;;;4.05;3.05;;;;;;;10.47;100.00;101127.50;2615390;31;20669;-44
2021/09/20 02:22:50;;;;;;;4.57;2.90;;;;;;;10.43;100.00;101126.53;2614862;36;20046;-44
2021/09/20 02:25:18;;;;;;;3.80;2.72;;;;;;;10.41;100.00;101129.06;2614762;36;20022;-43
2021/09/20 02:27:45;;;;;;;3.40;2.80;;;;;;;10.41;100.00;101135.88;2614301;36;20035;-45
2021/09/20 02:30:12;;;;;;;5.78;2.78;;;;;;;10.38;100.00;101131.50;2614503;31;20034;-43
2021/09/20 02:32:40;;;;;;;6.10;3.53;;;;;;;10.37;100.00;101132.31;2615149;31;20031;-45
2021/09/20 02:35:08;;;;;;;4.13;2.80;;;;;;;10.37;100.00;101131.47;2615591;31;20839;-46
2021/09/20 02:37:36;;;;;;;6.50;3.08;;;;;;;10.36;100.00;101134.84;2615563;31;20065;-45
2021/09/20 02:40:06;;;;;;;4.45;3.05;;;;;;;10.33;100.00;101135.59;2615327;31;20082;-44
2021/09/20 02:42:34;;;;;;;4.70;3.58;;;;;;;10.34;100.00;101139.91;2616068;31;20423;-46
2021/09/20 02:45:04;;;;;;;5.53;2.90;;;;;;;10.33;100.00;101142.41;2615089;36;20941;-47
2021/09/20 02:47:31;;;;;;;5.28;2.78;;;;;;;10.32;100.00;101135.56;2615104;31;20034;-43
2021/09/20 02:49:59;;;;;;;3.53;3.22;;;;;;;10.30;100.00;101127.81;2615263;31;20051;-47
2021/09/20 02:52:26;;;;;;;3.65;3.20;;;;;;;10.31;100.00;101138.94;2615197;31;20037;-44
2021/09/20 02:54:53;;;;;;;7.28;3.10;;;;;;;10.31;100.00;101138.94;2614637;36;20035;-44
2021/09/20 02:57:20;;;;;;;9.57;3.38;;;;;;;10.32;100.00;101140.69;2614829;31;20034;-45
2021/09/20 02:59:48;;;;;;;5.28;3.47;;;;;;;10.30;100.00;101143.16;2615329;31;20046;-44
2021/09/20 03:02:15;;;;;;;4.25;3.28;;;;;;;10.30;100.00;101132.91;2614792;36;20059;-44
2021/09/20 03:04:42;;;;;;;6.65;3.40;;;;;;;10.32;100.00;101148.34;2615152;36;20366;-48
2021/09/20 03:07:09;;;;;;;5.05;3.28;;;;;;;10.33;100.00;101145.84;2614263;36;20030;-45
2021/09/20 03:09:36;;;;;;;7.97;3.08;;;;;;;10.31;100.00;101139.81;2615173;31;20039;-45
2021/09/20 03:12:04;;;;;;;7.13;3.17;;;;;;;10.29;100.00;101138.00;2615057;31;20041;-47
2021/09/20 03:14:32;;;;;;;6.40;3.10;;;;;;;10.29;100.00;101144.00;2614440;36;20038;-43
2021/09/20 03:16:59;;;;;;;4.75;3.28;;;;;;;10.28;100.00;101136.28;2615203;31;20454;-43
2021/09/20 03:19:26;;;;;;;3.95;3.10;;;;;;;10.29;100.00;101140.56;2614879;31;20030;-47
2021/09/20 03:21:53;;;;;;;4.95;3.15;;;;;;;10.27;100.00;101139.66;2614648;36;20035;-44
2021/09/20 03:24:20;;;;;;;5.50;2.95;;;;;;;10.26;100.00;101143.91;2615185;31;20030;-43
2021/09/20 03:26:49;;;;;;;6.80;3.30;;;;;;;10.25;100.00;101147.25;2614797;36;20442;-48
2021/09/20 03:29:16;;;;;;;5.00;2.92;;;;;;;10.25;100.00;101152.38;2614700;36;20750;-45
2021/09/20 03:31:43;;;;;;;6.07;3.58;;;;;;;10.27;100.00;101155.88;2614648;31;20034;-54
2021/09/20 03:34:10;;;;;;;5.65;3.10;;;;;;;10.25;100.00;101154.06;2615659;31;20082;-47
2021/09/20 03:36:37;;;;;;;5.78;3.60;;;;;;;10.24;100.00;101150.66;2614226;36;20030;-47
2021/09/20 03:39:04;;;;;;;4.88;3.20;;;;;;;10.25;100.00;101157.50;2614348;36;20063;-47
2021/09/20 03:41:32;;;;;;;9.00;3.60;;;;;;;10.22;100.00;101153.94;2614977;31;20600;-46
2021/09/20 03:43:59;;;;;;;6.28;3.72;;;;;;;10.19;100.00;101147.03;2615000;31;20061;-46
2021/09/20 03:46:26;;;;;;;6.05;3.70;;;;;;;10.17;100.00;101139.31;2614971;31;20030;-45
2021/09/20 03:48:54;;;;;;;6.50;3.20;;;;;;;10.16;100.00;101155.44;2614689;36;20031;-49
2021/09/20 03:51:21;;;;;;;4.25;3.10;;;;;;;10.18;100.00;101161.50;2614464;36;20593;-45
2021/09/20 03:53:48;;;;;;;5.05;3.63;;;;;;;10.14;100.00;101164.78;2614125;36;20885;-49
2021/09/20 03:56:15;;;;;;;5.15;3.20;;;;;;;10.12;100.00;101166.44;2614307;31;20077;-46
2021/09/20 03:58:42;;;;;;;3.67;3.22;;;;;;;10.10;100.00;101165.47;2614238;36;20055;-45
2021/09/20 04:01:09;;;;;;;3.97;3.38;;;;;;;10.12;100.00;101170.66;2614535;36;20593;-47
2021/09/20 04:03:37;;;;;;;5.00;3.70;;;;;;;10.13;100.00;101174.97;2614813;36;20717;-45
2021/09/20 04:06:04;;;;;;;8.35;3.33;;;;;;;10.12;100.00;101163.88;2615571;31;20046;-46
2021/09/20 04:08:31;;;;;;;5.20;3.35;;;;;;;10.10;100.00;101172.28;2614636;36;20458;-52
2021/09/20 04:10:58;;;;;;;7.80;3.65;;;;;;;10.11;100.00;101168.91;2614760;31;20061;-48
2021/09/20 04:13:25;;;;;;;6.00;3.65;;;;;;;10.11;100.00;101180.00;2614774;31;20889;-44
2021/09/20 04:15:54;;;;;;;4.50;3.45;;;;;;;10.09;100.00;101176.53;2614764;36;20058;-45
2021/09/20 04:18:22;;;;;;;4.93;3.20;;;;;;;10.08;100.00;101169.69;2614846;31;20098;-44
2021/09/20 04:20:51;;;;;;;7.47;4.00;;;;;;;10.09;100.00;101174.00;2614812;36;20030;-47
2021/09/20 04:23:21;;;;;;;4.75;3.67;;;;;;;10.10;100.00;101179.97;2615304;31;20497;-48
2021/09/20 04:25:49;;;;;;;4.82;3.33;;;;;;;10.10;100.00;101177.41;2613905;36;20086;-48
2021/09/20 04:28:17;;;;;;;6.05;3.60;;;;;;;10.07;100.00;101180.72;2614267;31;20059;-46
2021/09/20 04:30:45;;;;;;;7.43;3.45;;;;;;;10.06;100.00;101178.97;2614390;36;20065;-45
2021/09/20 04:33:14;;;;;;;4.95;3.75;;;;;;;10.06;100.00;101181.53;2614115;31;20053;-46
2021/09/20 04:35:42;;;;;;;6.03;3.70;;;;;;;10.06;100.00;101185.78;2615289;31;20037;-47
2021/09/20 04:38:11;;;;;;;4.97;3.50;;;;;;;10.06;100.00;101180.69;2615014;31;20086;-46
2021/09/20 04:40:39;;;;;;;5.20;3.53;;;;;;;10.06;100.00;101190.91;2614095;36;20073;-45
2021/09/20 04:43:08;;;;;;;6.05;4.50;;;;;;;10.07;100.00;101202.88;2614183;36;20271;-46
2021/09/20 04:45:37;;;;;;;5.70;4.13;;;;;;;10.07;100.00;101197.75;2614922;31;20065;-45
2021/09/20 04:48:10;;;;;;;9.05;4.32;;;;;;;10.06;100.00;101198.59;2613573;31;20038;-45
2021/09/20 04:50:42;;;;;;;10.82;4.50;;;;;;;10.04;100.00;101202.78;2614104;36;20026;-45
2021/09/20 04:53:11;;;;;;;8.70;4.85;;;;;;;10.05;100.00;101202.84;2614615;36;20845;-45
2021/09/20 04:55:38;;;;;;;5.55;4.15;;;;;;;10.05;100.00;101210.50;2614721;31;20061;-49
2021/09/20 04:58:10;;;;;;;7.32;4.43;;;;;;;10.05;100.00;101207.09;2613790;31;20061;-44
2021/09/20 05:00:39;;;;;;;4.85;3.50;;;;;;;10.05;100.00;101210.50;2613488;36;20065;-48
2021/09/20 05:03:06;;;;;;;6.65;3.78;;;;;;;10.06;100.00;101212.25;2614357;36;20104;-45
2021/09/20 05:05:34;;;;;;;5.57;4.70;;;;;;;10.07;100.00;101211.44;2613878;36;20039;-45
2021/09/20 05:08:01;;;;;;;8.10;3.88;;;;;;;10.10;100.00;101220.91;2614262;36;20764;-45
2021/09/20 05:10:28;;;;;;;6.95;4.35;;;;;;;10.09;100.00;101216.63;2614970;31;20038;-49
2021/09/20 05:12:55;;;;;;;7.35;4.05;;;;;;;10.10;100.00;101223.47;2614364;36;20031;-48
2021/09/20 05:15:23;;;;;;;4.80;3.80;;;;;;;10.10;100.00;101219.22;2614263;36;20042;-46
2021/09/20 05:17:50;;;;;;;7.07;4.68;;;;;;;10.12;100.00;101227.84;2613594;36;20030;-45
2021/09/20 05:20:20;;;;;;;10.05;4.47;;;;;;;10.12;100.00;101222.72;2614836;31;20038;-47
2021/09/20 05:22:48;;;;;;;5.65;3.70;;;;;;;10.15;100.00;101222.81;2614086;31;20061;-45
2021/09/20 05:25:16;;;;;;;6.85;4.18;;;;;;;10.14;100.00;101220.22;2614459;31;20065;-46
2021/09/20 05:27:44;;;;;;;6.47;4.32;;;;;;;10.16;100.00;101227.13;2614964;31;20042;-47
2021/09/20 05:30:12;;;;;;;7.47;4.25;;;;;;;10.18;100.00;101220.38;2614529;31;20061;-45
2021/09/20 05:32:40;;;;;;;8.57;4.60;;;;;;;10.20;100.00;101225.53;2614636;31;20035;-48
2021/09/20 05:35:09;;;;;;;6.75;4.30;;;;;;;10.22;100.00;101223.06;2614358;31;20034;-47
2021/09/20 05:37:36;;;;;;;6.82;4.00;;;;;;;10.24;100.00;101227.44;2614751;31;20042;-45
2021/09/20 05:40:04;;;;;;;6.47;4.35;;;;;;;10.28;100.00;101236.09;2613842;36;20061;-48
2021/09/20 05:42:31;;;;;;;8.13;4.22;;;;;;;10.29;100.00;101232.72;2614124;36;20041;-47
2021/09/20 05:44:59;;;;;;;7.05;4.50;;;;;;;10.32;100.00;101236.25;2614356;31;20060;-45
2021/09/20 05:47:26;;;;;;;8.15;4.10;;;;;;;10.35;100.00;101232.91;2613875;31;20038;-46
2021/09/20 05:49:53;;;;;;;5.15;3.95;;;;;;;10.38;100.00;101231.34;2614944;31;20035;-47
2021/09/20 05:52:22;;;;;;;10.77;3.95;;;;;;;10.43;100.00;101234.06;2614426;31;20065;-47
2021/09/20 05:54:49;;;;;;;4.80;3.85;;;;;;;10.45;100.00;101230.75;2613860;31;20030;-45
2021/09/20 05:57:17;;;;;;;8.73;4.50;;;;;;;10.49;100.00;101231.72;2614464;36;20554;-47
2021/09/20 05:59:45;;;;;;;8.18;4.40;;;;;;;10.51;100.00;101236.91;2614496;31;20038;-46
2021/09/20 06:02:15;;;;;;;8.18;4.63;;;;;;;10.54;100.00;101237.00;2613104;31;20039;-45
2021/09/20 06:04:44;;;;;;;6.93;4.05;;;;;;;10.55;100.00;101241.31;2613813;36;20034;-48
2021/09/20 06:07:11;;;;;;;9.18;5.00;;;;;;;10.52;100.00;101234.38;2613800;36;20034;-45
2021/09/20 06:09:38;;;;;;;7.82;3.95;;;;;;;10.58;100.00;101244.84;2614209;31;20042;-44
2021/09/20 06:12:06;;;;;;;10.93;4.57;;;;;;;10.57;100.00;101244.78;2614036;31;20086;-46
2021/09/20 06:14:33;;;;;;;4.93;4.03;;;;;;;10.63;100.00;101242.44;2614643;31;20035;-45
2021/09/20 06:17:01;;;;;;;10.00;4.60;;;;;;;10.59;100.00;101246.59;2614870;31;20514;-44
2021/09/20 06:19:28;;;;;;;7.10;4.45;;;;;;;10.61;100.00;101250.06;2614743;31;20030;-44
2021/09/20 06:21:55;;;;;;;9.18;5.10;;;;;;;10.64;100.00;101247.63;2615053;36;20077;-45
2021/09/20 06:24:22;;;;;;;8.88;4.40;;;;;;;10.68;100.00;101246.03;2614586;36;20061;-43
2021/09/20 06:26:49;;;;;;;5.97;4.30;;;;;;;10.70;100.00;101245.25;2615831;31;20447;-44
2021/09/20 06:29:16;;;;;;;7.95;4.32;;;;;;;10.73;100.00;101241.06;2614586;36;20597;-43
2021/09/20 06:31:43;;;;;;;9.00;4.25;;;;;;;10.77;100.00;101248.91;2614619;31;20057;-48
2021/09/20 06:34:11;;;;;;;7.88;4.40;;;;;;;10.77;100.00;101248.91;2614407;31;20050;-45
2021/09/20 06:36:40;;;;;;;6.53;4.13;;;;;;;10.76;100.00;101249.72;2614966;36;20450;-44
2021/09/20 06:39:09;;;;;;;9.45;4.50;;;;;;;10.76;100.00;101249.72;2615660;31;20556;-45
2021/09/20 06:41:37;;;;;;;7.57;4.75;;;;;;;10.83;100.00;101248.25;2615365;31;20053;-46
2021/09/20 06:44:04;;;;;;;6.78;4.65;;;;;;;10.88;100.00;101250.13;2613987;36;20034;-46
2021/09/20 06:46:34;;;;;;;7.25;4.15;;;;;;;10.92;100.00;101261.38;2613603;36;20541;-45
2021/09/20 06:49:03;;;;;;;9.30;4.28;;;;;;;10.89;100.00;101256.13;2614372;31;20855;-47
2021/09/20 06:51:31;;;;;;;6.30;4.18;;;;;;;10.98;100.00;101256.44;2615286;36;20419;-45
2021/09/20 06:53:59;;;;;;;7.65;4.45;;;;;;;11.03;100.00;101254.88;2614571;36;20574;-48
2021/09/20 06:56:26;;;;;;;8.95;4.55;;;;;;;10.95;100.00;101259.78;2614640;36;20031;-45
2021/09/20 06:58:53;;;;;;;6.32;4.07;;;;;;;11.04;100.00;101269.44;2615576;31;20033;-50
2021/09/20 07:01:20;;;;;;;8.55;4.10;;;;;;;11.04;100.00;101259.19;2614577;36;20033;-46
2021/09/20 07:03:48;;;;;;;7.38;5.00;;;;;;;11.14;100.00;101262.94;2614384;36;20187;-46
2021/09/20 07:06:15;;;;;;;7.18;5.25;;;;;;;11.23;100.00;101265.78;2614864;31;20031;-46
2021/09/20 07:08:42;;;;;;;8.00;5.75;;;;;;;11.18;100.00;101260.53;2614196;31;20034;-47
2021/09/20 07:11:09;;;;;;;6.43;4.40;;;;;;;11.13;100.00;101261.19;2612958;31;20057;-47
2021/09/20 07:13:36;;;;;;;7.75;4.63;;;;;;;11.27;100.00;101271.88;2612784;36;20038;-48
2021/09/20 07:16:04;;;;;;;5.75;4.03;;;;;;;11.31;100.00;101268.59;2612855;31;20061;-45
2021/09/20 07:18:31;;;;;;;7.53;4.57;;;;;;;11.32;100.00;101270.34;2612402;36;20043;-47
2021/09/20 07:20:58;;;;;;;6.50;3.83;;;;;;;11.39;100.00;101278.28;2613878;31;20518;-47
2021/09/20 17:05:36;;;;;;;11.15;7.47;;;;;;;13.88;90.67;101481.53;2614753;36;20041;-49
2021/09/20 17:08:04;;;;;;;13.32;7.30;;;;;;;13.83;91.98;101478.84;2615570;31;20030;-49
2021/09/20 17:10:31;;;;;;;8.13;6.43;;;;;;;13.83;90.19;101484.00;2615300;36;20035;-47
2021/09/20 17:12:59;;;;;;;9.90;7.55;;;;;;;13.79;90.48;101479.59;2615684;36;20034;-48
2021/09/20 17:15:28;;;;;;;12.77;9.27;;;;;;;13.76;91.21;101488.09;2615366;36;20604;-47
2021/09/20 17:17:55;;;;;;;10.45;5.85;;;;;;;13.72;89.11;101490.56;2615674;31;20034;-49
2021/09/20 17:20:23;;;;;;;10.15;6.90;;;;;;;13.66;92.40;101490.41;2615351;36;20451;-48
2021/09/20 17:22:51;;;;;;;11.68;6.85;;;;;;;13.58;93.01;101482.47;2615370;36;20035;-46
2021/09/20 17:25:19;;;;;;;8.77;6.57;;;;;;;13.58;91.03;101485.06;2615106;36;20038;-43
2021/09/20 17:27:47;;;;;;;6.70;5.93;;;;;;;13.58;92.23;101487.63;2615048;36;20589;-43
2021/09/20 17:30:19;;;;;;;8.60;6.40;;;;;;;13.53;92.40;101486.63;2615194;36;20042;-45
2021/09/20 17:32:46;;;;;;;8.70;6.13;;;;;;;13.40;95.02;101493.19;2615635;31;20559;-47
2021/09/20 17:35:16;;;;;;;6.43;5.53;;;;;;;13.34;96.36;101500.72;2614875;36;20122;-48
2021/09/20 17:37:44;;;;;;;9.50;5.30;;;;;;;13.32;95.89;101506.66;2616274;31;20499;-50
2021/09/20 17:40:12;;;;;;;11.15;5.30;;;;;;;13.30;94.43;101504.03;2615313;31;20104;-46
2021/09/20 17:42:40;;;;;;;7.82;4.57;;;;;;;13.31;94.89;101505.78;2615259;36;20031;-48
2021/09/20 17:45:07;;;;;;;7.43;4.95;;;;;;;13.28;94.18;101508.28;2615789;31;20030;-48
2021/09/20 17:47:35;;;;;;;7.90;5.15;;;;;;;13.29;95.05;101516.84;2615161;31;20597;-50
2021/09/20 17:50:04;;;;;;;8.90;5.15;;;;;;;13.23;94.25;101515.00;2615032;36;20591;-51
2021/09/20 17:52:31;;;;;;;8.55;5.68;;;;;;;13.21;94.50;101516.59;2615125;36;20034;-47
2021/09/20 17:54:58;;;;;;;10.90;6.13;;;;;;;13.19;94.75;101525.97;2614899;36;20037;-50
2021/09/20 17:57:25;;;;;;;10.48;6.25;;;;;;;13.15;96.19;101519.00;2615255;31;20550;-53
2021/09/20 17:59:53;;;;;;;8.60;5.93;;;;;;;13.13;94.98;101528.38;2615416;31;20057;-50
2021/09/20 18:02:20;;;;;;;8.88;6.00;;;;;;;13.08;96.05;101528.25;2614581;36;20042;-49
2021/09/20 18:04:47;;;;;;;9.82;6.22;;;;;;;13.05;95.76;101523.00;2614670;36;20054;-49
2021/09/20 18:07:15;;;;;;;10.70;7.00;;;;;;;13.04;95.93;101526.41;2615690;31;20883;-48
2021/09/20 18:09:42;;;;;;;11.35;7.22;;;;;;;13.02;95.80;101530.63;2615450;36;20034;-53
2021/09/20 18:12:11;;;;;;;13.55;7.25;;;;;;;12.98;96.25;101532.22;2616293;36;20026;-50
2021/09/20 18:14:39;;;;;;;10.82;8.63;;;;;;;12.96;97.19;101531.31;2614739;36;20034;-51
2021/09/20 18:17:07;;;;;;;10.07;8.80;;;;;;;12.94;98.07;101534.66;2615587;36;20035;-50
2021/09/20 18:19:35;;;;;;;12.57;7.68;;;;;;;12.92;97.65;101537.19;2615831;36;20570;-50
2021/09/20 18:22:03;;;;;;;12.52;7.72;;;;;;;12.87;98.46;101536.19;2616050;36;20038;-52
2021/09/20 18:24:31;;;;;;;8.23;7.30;;;;;;;12.85;99.20;101540.44;2615989;31;20653;-50
2021/09/20 18:26:58;;;;;;;8.77;6.75;;;;;;;12.83;99.43;101536.94;2615468;36;20101;-49
2021/09/20 18:29:25;;;;;;;8.73;6.35;;;;;;;12.79;100.00;101547.06;2615687;36;20034;-52
2021/09/20 18:31:52;;;;;;;8.80;6.60;;;;;;;12.75;100.00;101544.41;2615670;36;20597;-48
2021/09/20 18:34:20;;;;;;;8.50;6.53;;;;;;;12.74;99.60;101549.50;2616131;31;20069;-52
2021/09/20 18:36:47;;;;;;;8.90;6.00;;;;;;;12.71;100.00;101552.88;2616026;36;20045;-51
2021/09/20 18:39:19;;;;;;;8.90;6.40;;;;;;;12.67;100.00;101550.16;2618969;31;20517;-52
2021/09/20 18:41:55;;;;;;;9.40;6.70;;;;;;;12.66;99.81;101562.13;2620786;31;20041;-52
2021/09/20 18:44:26;;;;;;;9.13;7.65;;;;;;;12.64;100.00;101565.47;2615827;36;20536;-56
2021/09/20 18:46:54;;;;;;;10.55;8.95;;;;;;;12.59;100.00;101560.19;2615521;36;20069;-57
2021/09/20 18:49:23;;;;;;;10.95;9.38;;;;;;;12.59;100.00;101559.31;2615809;36;20550;-55
2021/09/20 18:51:51;;;;;;;10.93;8.45;;;;;;;12.59;100.00;101559.31;2616264;31;20646;-56
2021/09/20 18:54:18;;;;;;;9.85;7.90;;;;;;;12.57;100.00;101556.72;2616346;31;20065;-55
2021/09/20 18:56:46;;;;;;;10.90;6.05;;;;;;;12.55;100.00;101562.59;2615332;36;20034;-56
2021/09/20 18:59:16;;;;;;;7.43;5.47;;;;;;;12.51;100.00;101563.34;2616438;31;20615;-53
2021/09/20 19:01:43;;;;;;;7.13;4.97;;;;;;;12.48;100.00;101557.28;2615921;36;20034;-53
2021/09/20 19:04:11;;;;;;;9.55;5.70;;;;;;;12.47;100.00;101560.66;2616715;31;20031;-51
2021/09/20 19:06:38;;;;;;;9.90;5.85;;;;;;;12.45;100.00;101562.31;2618749;31;20034;-56
2021/09/20 19:09:06;;;;;;;8.30;5.80;;;;;;;12.39;100.00;101561.25;2621232;31;20034;-54
2021/09/20 19:11:34;;;;;;;7.47;6.35;;;;;;;12.38;100.00;101567.19;2619491;31;20588;-54
2021/09/20 19:14:01;;;;;;;8.88;5.38;;;;;;;12.33;100.00;101579.88;2613836;36;20038;-56
2021/09/20 19:16:28;;;;;;;6.97;5.47;;;;;;;12.29;100.00;101574.59;2614640;31;20474;-52
2021/09/20 19:19:04;;;;;;;8.63;5.85;;;;;;;12.26;100.00;101577.97;2613985;36;20085;-49
2021/09/20 19:21:33;;;;;;;8.15;5.65;;;;;;;12.25;100.00;101576.22;2613870;36;20056;-52
2021/09/20 19:24:00;;;;;;;9.00;6.38;;;;;;;12.21;100.00;101577.81;2613989;36;20034;-46
2021/09/20 19:26:28;;;;;;;6.85;6.13;;;;;;;12.17;100.00;101575.09;2614449;31;20034;-47
2021/09/20 19:28:55;;;;;;;9.32;7.00;;;;;;;12.14;100.00;101580.97;2615403;36;20042;-47
2021/09/20 19:31:23;;;;;;;12.32;7.65;;;;;;;12.13;100.00;101579.25;2615694;36;20022;-45
2021/09/20 19:33:51;;;;;;;10.52;7.18;;;;;;;12.13;100.00;101574.09;2615189;36;20030;-48
2021/09/20 19:36:20;;;;;;;12.68;7.57;;;;;;;12.12;100.00;101574.94;2615578;36;20042;-48
2021/09/20 19:38:47;;;;;;;12.00;7.60;;;;;;;12.12;100.00;101572.38;2615492;36;20041;-45
2021/09/20 19:41:15;;;;;;;10.23;7.72;;;;;;;12.07;100.00;101583.31;2615565;31;20061;-47
2021/09/20 19:43:43;;;;;;;10.82;7.97;;;;;;;12.07;100.00;101576.47;2615599;36;20030;-47
2021/09/20 19:46:12;;;;;;;9.43;8.30;;;;;;;12.08;100.00;101582.47;2615451;36;20034;-46
2021/09/20 19:48:40;;;;;;;11.90;8.57;;;;;;;12.08;100.00;101587.63;2615498;36;20071;-50
2021/09/20 19:51:10;;;;;;;9.70;8.30;;;;;;;12.07;100.00;101581.63;2615786;31;20042;-51
2021/09/20 19:53:38;;;;;;;10.43;7.57;;;;;;;12.04;100.00;101590.91;2615208;36;20031;-49
2021/09/20 19:56:06;;;;;;;8.63;6.10;;;;;;;12.02;100.00;101583.16;2615565;31;20038;-51
2021/09/20 19:58:34;;;;;;;12.63;6.30;;;;;;;12.00;100.00;101586.47;2615969;31;20031;-48
2021/09/20 20:01:03;;;;;;;11.70;7.57;;;;;;;11.97;100.00;101588.13;2615986;31;20115;-49
2021/09/20 20:03:30;;;;;;;11.35;7.28;;;;;;;11.94;100.00;101590.56;2614400;31;20042;-52
2021/09/20 20:05:59;;;;;;;10.07;6.25;;;;;;;11.94;100.00;101597.41;2614362;36;20026;-54
2021/09/20 20:08:26;;;;;;;8.00;6.32;;;;;;;11.88;100.00;101599.78;2613706;36;20034;-49
2021/09/20 20:10:57;;;;;;;10.05;6.47;;;;;;;11.84;100.00;101596.22;2614215;36;20030;-51
2021/09/20 20:13:25;;;;;;;8.88;6.53;;;;;;;11.83;100.00;101601.28;2614508;36;20034;-48
2021/09/20 20:15:53;;;;;;;12.90;8.55;;;;;;;11.84;100.00;101597.91;2614686;36;20038;-55
2021/09/20 20:18:20;;;;;;;10.75;6.95;;;;;;;11.83;100.00;101601.28;2615249;31;21006;-53
2021/09/20 20:20:55;;;;;;;11.57;7.63;;;;;;;11.82;100.00;101600.41;2614274;36;20030;-53
2021/09/20 20:23:27;;;;;;;10.13;8.03;;;;;;;11.81;100.00;101601.19;2614325;36;20038;-48
2021/09/20 20:25:55;;;;;;;12.60;8.70;;;;;;;11.81;100.00;101602.91;2614651;36;20454;-46
2021/09/20 20:28:23;;;;;;;14.50;10.02;;;;;;;11.78;100.00;101601.09;2615706;31;20035;-46
2021/09/20 20:30:50;;;;;;;12.60;7.90;;;;;;;11.76;100.00;101609.56;2615127;36;20027;-48
2021/09/20 20:33:17;;;;;;;10.77;6.70;;;;;;;11.73;100.00;101602.63;2616591;31;20038;-52
2021/09/20 20:35:45;;;;;;;12.75;6.55;;;;;;;11.71;100.00;101611.97;2615816;36;20034;-47
2021/09/20 20:38:12;;;;;;;9.40;6.95;;;;;;;11.69;100.00;101613.59;2615071;36;20041;-51
2021/09/20 20:40:39;;;;;;;12.55;6.72;;;;;;;11.66;100.00;101614.38;2615238;36;20030;-51
2021/09/20 20:43:07;;;;;;;10.23;6.70;;;;;;;11.66;100.00;101616.06;2616172;31;20082;-47
2021/09/20 20:45:34;;;;;;;10.85;6.60;;;;;;;11.64;100.00;101626.25;2615160;36;20042;-47
2021/09/20 20:48:02;;;;;;;13.20;7.70;;;;;;;11.63;100.00;101629.63;2615592;31;20034;-52
2021/09/20 20:50:29;;;;;;;8.77;6.28;;;;;;;11.64;100.00;101631.38;2615199;36;20061;-47
2021/09/20 20:52:56;;;;;;;13.18;6.65;;;;;;;11.65;100.00;101629.72;2615127;36;20081;-50
2021/09/20 20:55:23;;;;;;;12.95;6.65;;;;;;;11.62;100.00;101630.47;2615469;31;20042;-48
2021/09/20 20:57:51;;;;;;;11.18;6.75;;;;;;;11.62;100.00;101637.28;2615690;31;20570;-55
2021/09/20 21:00:18;;;;;;;10.95;7.22;;;;;;;11.60;100.00;101639.81;2615600;31;20652;-45